createdAt,value
2019-02-17T00:02:36.005Z,47.18
2019-02-17T00:05:26.119Z,47.79
2019-02-17T00:08:14.173Z,49.02
2019-02-17T00:11:04.432Z,50.00
2019-02-17T00:13:52.560Z,51.51
2019-02-17T00:16:40.806Z,51.96
2019-02-17T00:19:28.709Z,52.00
2019-02-17T00:22:16.724Z,51.38
2019-02-17T00:25:04.701Z,51.25
2019-02-17T00:27:53.436Z,51.77
2019-02-17T00:30:41.656Z,52.28
2019-02-17T00:33:29.848Z,52.26
2019-02-17T00:36:17.643Z,50.52
2019-02-17T00:39:06.735Z,49.73
2019-02-17T00:41:55.000Z,49.72
2019-02-17T00:44:43.360Z,50.27
2019-02-17T00:47:30.974Z,49.08
2019-02-17T00:50:19.083Z,47.65
2019-02-17T00:53:06.950Z,46.71
2019-02-17T00:55:54.904Z,45.99
2019-02-17T00:58:43.358Z,45.15
2019-02-17T01:01:31.148Z,44.75
2019-02-17T01:04:18.762Z,44.59
2019-02-17T01:07:06.863Z,44.45
2019-02-17T01:09:54.726Z,44.72
2019-02-17T01:12:43.018Z,44.70
2019-02-17T01:15:30.826Z,44.59
2019-02-17T01:18:18.500Z,44.73
2019-02-17T01:21:06.294Z,44.84
2019-02-17T01:23:54.100Z,45.99
2019-02-17T01:26:42.341Z,46.55
2019-02-17T01:29:30.361Z,47.38
2019-02-17T01:32:18.633Z,48.04
2019-02-17T01:35:06.734Z,47.83
2019-02-17T01:37:54.311Z,47.83
2019-02-17T01:40:42.745Z,47.00
2019-02-17T01:43:31.020Z,47.08
2019-02-17T01:46:18.827Z,46.83
2019-02-17T01:49:07.122Z,46.98
2019-02-17T01:51:55.086Z,47.07
2019-02-17T01:54:42.984Z,46.83
2019-02-17T01:57:31.193Z,46.48
2019-02-17T02:00:18.842Z,46.41
2019-02-17T02:03:07.028Z,46.69
2019-02-17T02:05:54.882Z,46.54
2019-02-17T02:08:42.831Z,46.52
2019-02-17T02:11:30.640Z,46.29
2019-02-17T02:14:18.767Z,46.45
2019-02-17T02:17:06.915Z,46.71
2019-02-17T02:19:55.199Z,46.67
2019-02-17T02:22:43.401Z,46.92
2019-02-17T02:25:31.641Z,46.98
2019-02-17T02:28:19.611Z,47.05
2019-02-17T02:31:07.459Z,46.96
2019-02-17T02:33:55.397Z,47.75
2019-02-17T02:36:43.330Z,47.89
2019-02-17T02:39:31.538Z,48.38
2019-02-17T02:42:19.355Z,48.13
2019-02-17T02:45:08.153Z,47.48
2019-02-17T02:47:56.288Z,47.25
2019-02-17T02:50:44.248Z,47.52
2019-02-17T02:53:32.129Z,48.41
2019-02-17T02:56:19.984Z,48.21
2019-02-17T02:59:08.236Z,47.57
2019-02-17T03:01:56.615Z,47.73
2019-02-17T03:04:44.390Z,47.37
2019-02-17T03:07:32.555Z,48.09
2019-02-17T03:10:20.376Z,48.27
2019-02-17T03:13:08.949Z,48.10
2019-02-17T03:15:56.747Z,48.50
2019-02-17T03:18:44.664Z,48.71
2019-02-17T03:21:32.533Z,48.77
2019-02-17T03:24:20.930Z,48.95
2019-02-17T03:27:08.906Z,48.97
2019-02-17T03:30:04.437Z,48.58
2019-02-17T03:32:45.773Z,49.18
2019-02-17T03:35:33.815Z,49.10
2019-02-17T03:38:21.612Z,48.90
2019-02-17T03:41:09.880Z,49.09
2019-02-17T03:43:57.817Z,49.20
2019-02-17T03:46:45.705Z,49.32
2019-02-17T03:49:33.536Z,49.43
2019-02-17T03:52:21.482Z,49.78
2019-02-17T03:55:09.680Z,49.74
2019-02-17T03:57:57.661Z,50.06
2019-02-17T04:00:45.846Z,50.59
2019-02-17T04:03:33.798Z,50.71
2019-02-17T04:06:21.629Z,51.11
2019-02-17T04:09:09.922Z,51.43
2019-02-17T04:11:57.998Z,52.55
2019-02-17T04:14:45.820Z,51.87
2019-02-17T04:17:33.670Z,51.93
2019-02-17T04:20:21.528Z,51.78
2019-02-17T04:23:09.185Z,51.23
2019-02-17T04:25:57.088Z,51.15
2019-02-17T04:28:45.096Z,51.35
2019-02-17T04:31:33.040Z,51.49
2019-02-17T04:34:20.920Z,51.63
2019-02-17T04:37:08.787Z,51.77
2019-02-17T04:39:56.855Z,52.24
2019-02-17T04:42:44.747Z,52.40
2019-02-17T04:45:33.210Z,52.69
2019-02-17T04:48:21.157Z,52.75
2019-02-17T04:51:09.201Z,53.04
2019-02-17T04:53:57.529Z,53.50
2019-02-17T04:56:46.941Z,53.77
2019-02-17T04:59:35.194Z,53.52
2019-02-17T05:02:23.132Z,52.70
2019-02-17T05:05:10.674Z,51.84
2019-02-17T05:07:59.245Z,50.55
2019-02-17T05:10:47.066Z,50.08
2019-02-17T05:13:35.206Z,49.65
2019-02-17T05:16:22.705Z,49.30
2019-02-17T05:19:10.974Z,49.44
2019-02-17T05:21:59.242Z,49.51
2019-02-17T05:24:47.365Z,49.38
2019-02-17T05:27:35.251Z,49.31
2019-02-17T05:30:23.366Z,49.23
2019-02-17T05:33:11.297Z,49.32
2019-02-17T05:35:59.284Z,49.55
2019-02-17T05:38:47.090Z,50.03
2019-02-17T05:41:35.248Z,51.68
2019-02-17T05:44:23.433Z,50.37
2019-02-17T05:47:11.403Z,50.30
2019-02-17T05:49:58.883Z,50.75
2019-02-17T05:52:47.150Z,51.24
2019-02-17T05:55:35.227Z,51.79
2019-02-17T05:58:23.389Z,52.33
2019-02-17T06:01:11.273Z,52.89
2019-02-17T06:03:59.121Z,53.81
2019-02-17T06:06:47.124Z,55.38
2019-02-17T06:09:35.204Z,56.67
2019-02-17T06:12:23.230Z,57.17
2019-02-17T06:15:11.490Z,57.57
2019-02-17T06:17:59.814Z,57.47
2019-02-17T06:20:47.304Z,57.91
2019-02-17T06:23:35.213Z,57.78
2019-02-17T06:26:23.200Z,57.74
2019-02-17T06:29:11.197Z,56.65
2019-02-17T06:31:59.273Z,56.82
2019-02-17T06:34:47.254Z,54.98
2019-02-17T06:37:35.101Z,52.71
2019-02-17T06:40:23.219Z,51.33
2019-02-17T06:43:11.320Z,50.63
2019-02-17T06:45:59.430Z,50.07
2019-02-17T06:48:47.294Z,49.93
2019-02-17T06:51:35.770Z,49.76
2019-02-17T06:54:23.949Z,49.78
2019-02-17T06:57:16.271Z,49.94
2019-02-17T07:00:18.542Z,50.15
2019-02-17T07:03:06.606Z,50.32
2019-02-17T07:06:17.423Z,49.82
2019-02-17T07:09:06.570Z,49.54
2019-02-17T07:11:56.784Z,49.42
2019-02-17T07:14:43.762Z,49.03
2019-02-17T07:17:31.939Z,48.84
2019-02-17T07:20:19.899Z,48.92
2019-02-17T07:23:08.533Z,48.55
2019-02-17T07:25:56.618Z,48.55
2019-02-17T07:28:44.677Z,48.70
2019-02-17T07:31:35.277Z,49.24
2019-02-17T07:34:22.193Z,45.49
2019-02-17T07:37:10.637Z,43.27
2019-02-17T07:39:58.348Z,41.36
2019-02-17T07:42:46.263Z,39.81
2019-02-17T07:45:34.146Z,38.80
2019-02-17T07:48:22.272Z,38.31
2019-02-17T07:51:10.074Z,37.48
2019-02-17T07:53:57.960Z,37.22
2019-02-17T07:56:45.869Z,37.47
2019-02-17T07:59:33.815Z,37.62
2019-02-17T08:02:22.088Z,38.11
2019-02-17T08:05:10.354Z,37.89
2019-02-17T08:07:58.513Z,38.20
2019-02-17T08:10:46.972Z,37.57
2019-02-17T08:13:34.507Z,37.05
2019-02-17T08:16:22.700Z,38.01
2019-02-17T08:19:10.891Z,39.74
2019-02-17T08:21:58.950Z,39.39
2019-02-17T08:24:47.244Z,39.22
2019-02-17T08:27:35.248Z,39.45
2019-02-17T08:30:23.426Z,40.14
2019-02-17T08:33:11.758Z,40.20
2019-02-17T08:35:59.643Z,39.09
2019-02-17T08:38:47.730Z,37.34
2019-02-17T08:41:35.498Z,36.49
2019-02-17T08:44:23.510Z,37.14
2019-02-17T08:47:11.271Z,37.19
2019-02-17T08:49:58.854Z,37.72
2019-02-17T08:52:46.778Z,37.55
2019-02-17T08:55:34.770Z,36.76
2019-02-17T08:58:22.682Z,36.66
2019-02-17T09:01:10.282Z,35.43
2019-02-17T09:03:57.791Z,36.41
2019-02-17T09:06:45.851Z,35.90
2019-02-17T09:09:33.923Z,35.50
2019-02-17T09:12:22.081Z,35.38
2019-02-17T09:15:10.778Z,35.33
2019-02-17T09:17:58.734Z,36.37
2019-02-17T09:20:46.898Z,37.75
2019-02-17T09:23:35.038Z,38.61
2019-02-17T09:26:22.849Z,38.70
2019-02-17T09:29:11.685Z,38.38
2019-02-17T09:31:59.650Z,39.06
2019-02-17T09:34:47.508Z,38.50
2019-02-17T09:37:35.191Z,37.88
2019-02-17T09:40:23.418Z,37.93
2019-02-17T09:43:11.369Z,36.69
2019-02-17T09:45:59.506Z,36.89
2019-02-17T09:48:47.709Z,35.68
2019-02-17T09:51:35.592Z,35.77
2019-02-17T09:54:23.674Z,35.98
2019-02-17T09:57:11.826Z,35.36
2019-02-17T09:59:59.912Z,34.68
2019-02-17T10:02:48.069Z,34.50
2019-02-17T10:05:36.060Z,34.02
2019-02-17T10:08:23.906Z,33.03
2019-02-17T10:11:12.028Z,32.28
2019-02-17T10:13:59.941Z,32.91
2019-02-17T10:16:48.351Z,32.80
2019-02-17T10:19:36.711Z,32.92
2019-02-17T10:22:24.789Z,33.67
2019-02-17T10:25:12.815Z,34.10
2019-02-17T10:28:00.917Z,34.14
2019-02-17T10:30:49.160Z,33.92
2019-02-17T10:33:37.543Z,34.82
2019-02-17T10:36:25.906Z,35.25
2019-02-17T10:39:13.719Z,35.59
2019-02-17T10:42:01.224Z,35.37
2019-02-17T10:44:48.870Z,34.95
2019-02-17T10:47:37.171Z,34.45
2019-02-17T10:50:24.914Z,34.43
2019-02-17T10:53:13.117Z,33.57
2019-02-17T10:56:01.058Z,34.14
2019-02-17T10:58:49.225Z,34.09
2019-02-17T11:01:37.338Z,33.88
2019-02-17T11:04:25.585Z,33.93
2019-02-17T11:07:13.690Z,33.89
2019-02-17T11:10:01.731Z,34.06
2019-02-17T11:12:49.912Z,34.06
2019-02-17T11:15:37.879Z,33.43
2019-02-17T11:18:25.998Z,33.29
2019-02-17T11:21:14.267Z,32.86
2019-02-17T11:24:02.123Z,33.50
2019-02-17T11:26:50.208Z,33.65
2019-02-17T11:29:38.359Z,33.90
2019-02-17T11:32:25.967Z,33.50
2019-02-17T11:35:13.863Z,33.44
2019-02-17T11:38:02.300Z,33.20
2019-02-17T11:40:50.214Z,33.17
2019-02-17T11:43:38.510Z,32.66
2019-02-17T11:46:26.588Z,32.21
2019-02-17T11:49:14.618Z,32.04
2019-02-17T11:52:02.819Z,31.99
2019-02-17T11:54:50.646Z,32.47
2019-02-17T11:57:38.818Z,32.78
2019-02-17T12:00:27.490Z,32.94
2019-02-17T12:03:15.321Z,32.56
2019-02-17T12:06:03.281Z,32.58
2019-02-17T12:08:50.869Z,32.91
2019-02-17T12:11:39.074Z,33.04
2019-02-17T12:14:32.562Z,32.65
2019-02-17T12:17:20.506Z,32.68
2019-02-17T12:20:33.298Z,32.14
2019-02-17T12:23:26.220Z,31.97
2019-02-17T12:26:28.272Z,32.01
2019-02-17T12:29:24.266Z,32.24
2019-02-17T12:32:12.360Z,32.57
2019-02-17T12:34:59.933Z,32.34
2019-02-17T12:37:48.084Z,32.43
2019-02-17T12:40:36.097Z,31.84
2019-02-17T12:43:24.205Z,31.50
2019-02-17T12:46:12.518Z,32.10
2019-02-17T12:49:00.626Z,31.70
2019-02-17T12:51:48.766Z,31.86
2019-02-17T12:54:36.950Z,32.00
2019-02-17T12:57:25.180Z,32.38
2019-02-17T13:00:15.957Z,32.30
2019-02-17T13:03:03.960Z,31.82
2019-02-17T13:05:51.657Z,31.59
2019-02-17T13:08:39.722Z,31.31
2019-02-17T13:11:27.789Z,31.43
2019-02-17T13:14:15.924Z,30.91
2019-02-17T13:17:03.957Z,31.25
2019-02-17T13:19:52.357Z,31.12
2019-02-17T13:22:40.182Z,31.03
2019-02-17T13:25:28.320Z,31.10
2019-02-17T13:28:16.301Z,30.83
2019-02-17T13:31:04.377Z,30.52
2019-02-17T13:33:52.566Z,29.86
2019-02-17T13:36:40.645Z,29.45
2019-02-17T13:39:28.551Z,29.58
2019-02-17T13:42:16.736Z,29.20
2019-02-17T13:45:04.245Z,29.13
2019-02-17T13:47:52.169Z,28.58
2019-02-17T13:50:40.353Z,28.44
2019-02-17T13:53:28.428Z,28.53
2019-02-17T13:56:16.644Z,28.15
2019-02-17T13:59:04.160Z,28.17
2019-02-17T14:01:52.413Z,29.03
2019-02-17T14:04:40.833Z,28.87
2019-02-17T14:07:28.610Z,28.56
2019-02-17T14:10:16.442Z,29.52
2019-02-17T14:13:04.320Z,29.27
2019-02-17T14:15:52.306Z,29.34
2019-02-17T14:18:40.112Z,28.66
2019-02-17T14:21:28.078Z,28.49
2019-02-17T14:24:16.220Z,28.33
2019-02-17T14:27:04.224Z,28.02
2019-02-17T14:29:52.006Z,27.70
2019-02-17T14:32:39.745Z,27.89
2019-02-17T14:35:27.637Z,28.08
2019-02-17T14:38:15.831Z,28.29
2019-02-17T14:41:03.605Z,28.15
2019-02-17T14:43:51.467Z,28.44
2019-02-17T14:46:39.103Z,28.73
2019-02-17T14:49:27.416Z,29.08
2019-02-17T14:52:15.634Z,29.65
2019-02-17T14:55:03.629Z,29.54
2019-02-17T14:57:51.570Z,30.01
2019-02-17T15:00:39.637Z,30.04
2019-02-17T15:03:27.684Z,30.07
2019-02-17T15:06:15.687Z,30.07
2019-02-17T15:09:05.035Z,30.17
2019-02-17T15:11:53.072Z,30.39
2019-02-17T15:14:41.480Z,30.15
2019-02-17T15:17:29.618Z,29.48
2019-02-17T15:20:18.037Z,30.25
2019-02-17T15:23:05.641Z,29.49
2019-02-17T15:25:53.876Z,29.59
2019-02-17T15:28:50.595Z,29.97
2019-02-17T15:31:31.332Z,29.68
2019-02-17T15:34:19.105Z,29.16
2019-02-17T15:37:07.415Z,28.59
2019-02-17T15:39:55.303Z,28.51
2019-02-17T15:42:43.653Z,28.25
2019-02-17T15:45:31.411Z,28.50
2019-02-17T15:48:19.367Z,28.79
2019-02-17T15:51:07.639Z,28.64
2019-02-17T15:53:55.634Z,28.93
2019-02-17T15:56:43.489Z,29.07
2019-02-17T15:59:32.153Z,29.19
2019-02-17T16:02:20.394Z,29.27
2019-02-17T16:05:09.122Z,29.51
2019-02-17T16:07:56.998Z,29.57
2019-02-17T16:10:45.288Z,29.41
2019-02-17T16:13:33.693Z,29.79
2019-02-17T16:16:21.335Z,30.59
2019-02-17T16:19:09.368Z,30.83
2019-02-17T16:21:57.486Z,30.49
2019-02-17T16:24:45.910Z,31.14
2019-02-17T16:27:33.844Z,31.33
2019-02-17T16:30:22.119Z,31.44
2019-02-17T16:33:10.288Z,31.54
2019-02-17T16:35:58.304Z,32.11
2019-02-17T16:38:46.140Z,32.10
2019-02-17T16:41:34.085Z,32.22
2019-02-17T16:44:22.287Z,32.17
2019-02-17T16:47:10.551Z,32.60
2019-02-17T16:49:58.630Z,32.93
2019-02-17T16:52:46.756Z,33.28
2019-02-17T16:55:34.698Z,33.47
2019-02-17T16:58:22.954Z,33.51
2019-02-17T17:01:11.196Z,33.42
2019-02-17T17:03:58.740Z,33.20
2019-02-17T17:06:47.054Z,33.20
2019-02-17T17:09:34.731Z,32.33
2019-02-17T17:12:24.825Z,32.56
2019-02-17T17:15:12.724Z,32.71
2019-02-17T17:18:00.915Z,32.79
2019-02-17T17:20:48.760Z,33.16
2019-02-17T17:23:36.499Z,33.38
2019-02-17T17:26:24.382Z,34.08
2019-02-17T17:29:12.467Z,34.34
2019-02-17T17:32:00.421Z,34.92
2019-02-17T17:34:58.400Z,35.26
2019-02-17T17:37:38.576Z,35.49
2019-02-17T17:40:26.411Z,35.65
2019-02-17T17:43:13.999Z,35.73
2019-02-17T17:46:01.720Z,35.95
2019-02-17T17:48:49.786Z,36.08
2019-02-17T17:51:37.728Z,36.59
2019-02-17T17:54:25.285Z,36.59
2019-02-17T17:57:13.547Z,37.13
2019-02-17T18:00:01.155Z,37.16
2019-02-17T18:02:49.358Z,37.55
2019-02-17T18:05:37.479Z,37.52
2019-02-17T18:08:25.418Z,37.87
2019-02-17T18:11:13.210Z,37.83
2019-02-17T18:14:01.174Z,38.09
2019-02-17T18:16:49.450Z,38.05
2019-02-17T18:19:37.339Z,38.08
2019-02-17T18:22:25.025Z,38.20
2019-02-17T18:25:12.918Z,38.09
2019-02-17T18:28:01.179Z,38.06
2019-02-17T18:30:49.453Z,38.25
2019-02-17T18:33:37.395Z,38.36
2019-02-17T18:36:25.682Z,38.69
2019-02-17T18:39:13.580Z,38.87
2019-02-17T18:42:01.699Z,38.21
2019-02-17T18:44:49.668Z,38.41
2019-02-17T18:47:37.800Z,38.52
2019-02-17T18:50:25.592Z,39.19
2019-02-17T18:53:15.348Z,39.06
2019-02-17T18:56:03.119Z,38.99
2019-02-17T18:58:51.699Z,39.17
2019-02-17T19:01:39.360Z,39.08
2019-02-17T19:04:27.190Z,39.26
2019-02-17T19:07:15.065Z,39.21
2019-02-17T19:10:02.559Z,39.17
2019-02-17T19:12:50.885Z,39.18
2019-02-17T19:15:38.819Z,39.28
2019-02-17T19:18:27.308Z,39.65
2019-02-17T19:21:15.653Z,39.17
2019-02-17T19:24:03.945Z,38.79
2019-02-17T19:26:51.929Z,39.02
2019-02-17T19:29:40.235Z,39.13
2019-02-17T19:32:27.861Z,39.37
2019-02-17T19:35:16.099Z,39.48
2019-02-17T19:38:04.414Z,40.00
2019-02-17T19:40:52.143Z,39.58
2019-02-17T19:43:39.712Z,39.25
2019-02-17T19:46:27.520Z,39.70
2019-02-17T19:49:15.357Z,39.84
2019-02-17T19:52:03.809Z,39.76
2019-02-17T19:54:51.999Z,40.04
2019-02-17T19:57:40.321Z,40.03
2019-02-17T20:00:28.215Z,40.04
2019-02-17T20:03:34.737Z,40.21
2019-02-17T20:06:24.653Z,40.05
2019-02-17T20:09:19.669Z,39.89
2019-02-17T20:12:07.979Z,40.41
2019-02-17T20:14:56.210Z,39.92
2019-02-17T20:17:45.264Z,40.00
2019-02-17T20:20:33.633Z,40.65
2019-02-17T20:23:21.890Z,41.32
2019-02-17T20:26:10.639Z,41.34
2019-02-17T20:28:59.124Z,41.62
2019-02-17T20:31:47.057Z,41.92
2019-02-17T20:34:35.219Z,42.53
2019-02-17T20:37:25.325Z,43.54
2019-02-17T20:40:12.765Z,44.81
2019-02-17T20:43:01.497Z,44.86
2019-02-17T20:45:49.341Z,43.95
2019-02-17T20:48:37.153Z,44.02
2019-02-17T20:51:24.918Z,44.28
2019-02-17T20:54:12.772Z,43.69
2019-02-17T20:57:00.591Z,42.98
2019-02-17T20:59:48.426Z,41.86
2019-02-17T21:02:36.599Z,41.12
2019-02-17T21:05:24.683Z,41.15
2019-02-17T21:08:12.618Z,41.14
2019-02-17T21:11:01.100Z,40.99
2019-02-17T21:13:49.344Z,41.74
2019-02-17T21:16:37.173Z,41.86
2019-02-17T21:19:25.037Z,42.56
2019-02-17T21:22:13.039Z,43.01
2019-02-17T21:25:01.394Z,43.22
2019-02-17T21:27:49.003Z,42.98
2019-02-17T21:30:37.118Z,43.31
2019-02-17T21:33:24.972Z,42.72
2019-02-17T21:36:22.569Z,42.96
2019-02-17T21:39:03.474Z,42.83
2019-02-17T21:41:51.544Z,42.77
2019-02-17T21:44:39.479Z,42.16
2019-02-17T21:47:27.548Z,42.34
2019-02-17T21:50:15.721Z,42.28
2019-02-17T21:53:04.122Z,42.28
2019-02-17T21:55:51.967Z,42.30
2019-02-17T21:58:40.031Z,42.22
2019-02-17T22:01:28.220Z,41.72
2019-02-17T22:04:16.452Z,41.72
2019-02-17T22:07:04.321Z,41.78
2019-02-17T22:09:52.367Z,41.95
2019-02-17T22:12:40.686Z,41.89
2019-02-17T22:15:28.887Z,41.70
2019-02-17T22:18:16.787Z,42.52
2019-02-17T22:21:05.341Z,41.61
2019-02-17T22:23:53.614Z,41.61
2019-02-17T22:26:41.883Z,41.57
2019-02-17T22:29:30.046Z,41.57
2019-02-17T22:32:18.074Z,41.57
2019-02-17T22:35:06.820Z,41.63
2019-02-17T22:37:55.210Z,41.57
2019-02-17T22:40:43.410Z,41.52
2019-02-17T22:43:31.561Z,42.06
2019-02-17T22:46:19.234Z,41.61
2019-02-17T22:49:07.564Z,42.08
2019-02-17T22:51:55.735Z,42.53
2019-02-17T22:54:43.618Z,42.60
2019-02-17T22:57:31.756Z,42.31
2019-02-17T23:00:30.774Z,42.02
2019-02-17T23:03:18.656Z,42.43
2019-02-17T23:06:06.878Z,42.51
2019-02-17T23:08:55.289Z,42.99
2019-02-17T23:11:44.230Z,42.91
2019-02-17T23:14:32.186Z,42.77
2019-02-17T23:17:19.974Z,42.62
2019-02-17T23:20:08.480Z,42.31
2019-02-17T23:22:56.846Z,41.83
2019-02-17T23:25:44.910Z,42.90
2019-02-17T23:28:32.791Z,43.40
2019-02-17T23:31:20.381Z,43.73
2019-02-17T23:34:08.465Z,43.39
2019-02-17T23:37:03.727Z,43.24
2019-02-17T23:39:46.042Z,43.69
2019-02-17T23:42:33.544Z,43.86
2019-02-17T23:45:21.981Z,43.23
2019-02-17T23:48:10.280Z,43.54
2019-02-17T23:50:58.408Z,43.88
2019-02-17T23:53:46.341Z,44.11
2019-02-17T23:56:34.587Z,44.54
2019-02-17T23:59:22.594Z,44.05
